createdAt,value
2018-04-06T00:00:03.367Z,2.46
2018-04-06T00:02:30.715Z,2.34
2018-04-06T00:04:58.771Z,2.26
2018-04-06T00:07:25.731Z,2.21
2018-04-06T00:09:52.354Z,2.19
2018-04-06T00:12:19.314Z,2.23
2018-04-06T00:14:45.870Z,2.14
2018-04-06T00:17:12.471Z,2.06
2018-04-06T00:19:39.116Z,2.05
2018-04-06T00:22:06.739Z,2.16
2018-04-06T00:24:33.363Z,2.17
2018-04-06T00:26:59.942Z,2.20
2018-04-06T00:29:26.533Z,2.23
2018-04-06T00:31:53.142Z,2.35
2018-04-06T00:34:19.807Z,2.33
2018-04-06T00:36:47.163Z,2.33
2018-04-06T00:39:13.782Z,2.51
2018-04-06T00:41:40.390Z,2.45
2018-04-06T00:44:07.014Z,2.41
2018-04-06T00:46:33.637Z,2.31
2018-04-06T00:49:00.550Z,2.25
2018-04-06T00:51:27.103Z,2.26
2018-04-06T00:53:53.718Z,2.54
2018-04-06T00:56:20.330Z,2.23
2018-04-06T00:58:46.989Z,2.30
2018-04-06T01:01:14.380Z,2.02
2018-04-06T01:03:40.971Z,2.14
2018-04-06T01:06:07.526Z,1.91
2018-04-06T01:08:34.216Z,1.98
2018-04-06T01:11:00.802Z,1.88
2018-04-06T01:13:27.379Z,1.96
2018-04-06T01:15:54.003Z,1.82
2018-04-06T01:18:20.763Z,1.74
2018-04-06T01:20:47.751Z,1.68
2018-04-06T01:23:15.162Z,1.76
2018-04-06T01:25:42.814Z,1.91
2018-04-06T01:28:10.163Z,1.93
2018-04-06T01:30:37.497Z,1.99
2018-04-06T01:33:04.887Z,2.10
2018-04-06T01:35:32.170Z,1.96
2018-04-06T01:37:59.115Z,1.91
2018-04-06T01:40:26.395Z,1.77
2018-04-06T01:42:53.302Z,1.67
2018-04-06T01:45:21.667Z,1.60
2018-04-06T01:47:50.054Z,1.64
2018-04-06T01:50:17.031Z,1.79
2018-04-06T01:52:43.983Z,1.69
2018-04-06T01:55:11.261Z,1.75
2018-04-06T01:57:38.823Z,1.63
2018-04-06T02:00:06.182Z,1.51
2018-04-06T02:02:33.498Z,1.67
2018-04-06T02:05:00.842Z,1.60
2018-04-06T02:07:28.742Z,1.64
2018-04-06T02:09:56.108Z,1.55
2018-04-06T02:12:23.554Z,1.51
2018-04-06T02:14:50.931Z,1.54
2018-04-06T02:17:18.231Z,1.47
2018-04-06T02:19:45.539Z,1.49
2018-04-06T02:22:12.822Z,1.37
2018-04-06T02:24:41.185Z,1.42
2018-04-06T02:27:08.463Z,1.31
2018-04-06T02:29:35.819Z,1.30
2018-04-06T02:32:03.138Z,1.34
2018-04-06T02:34:30.442Z,1.35
2018-04-06T02:36:57.878Z,1.44
2018-04-06T02:39:25.160Z,1.34
2018-04-06T02:41:52.515Z,1.39
2018-04-06T02:44:20.098Z,1.47
2018-04-06T02:46:47.382Z,1.44
2018-04-06T02:49:15.455Z,1.51
2018-04-06T02:51:42.761Z,1.44
2018-04-06T02:54:10.061Z,1.61
2018-04-06T02:56:38.109Z,1.48
2018-04-06T02:59:05.464Z,1.52
2018-04-06T03:01:33.548Z,1.41
2018-04-06T03:04:00.861Z,1.39
2018-04-06T03:06:28.158Z,1.55
2018-04-06T03:08:56.210Z,1.60
2018-04-06T03:11:23.530Z,1.58
2018-04-06T03:13:50.853Z,1.56
2018-04-06T03:16:18.141Z,1.61
2018-04-06T03:18:45.503Z,1.55
2018-04-06T03:21:12.802Z,1.48
2018-04-06T03:23:41.090Z,1.55
2018-04-06T03:26:08.444Z,1.62
2018-04-06T03:28:36.482Z,1.51
2018-04-06T03:31:04.125Z,1.74
2018-04-06T03:33:31.409Z,1.75
2018-04-06T03:35:58.782Z,1.62
2018-04-06T03:38:26.101Z,1.61
2018-04-06T03:40:53.378Z,1.62
2018-04-06T03:43:20.669Z,1.45
2018-04-06T03:45:47.985Z,1.42
2018-04-06T03:48:16.049Z,1.38
2018-04-06T03:50:44.119Z,1.48
2018-04-06T03:53:11.427Z,1.52
2018-04-06T03:55:38.734Z,1.37
2018-04-06T03:58:06.751Z,1.47
2018-04-06T04:00:34.074Z,1.54
2018-04-06T04:03:01.384Z,1.67
2018-04-06T04:05:28.670Z,1.60
2018-04-06T04:07:56.003Z,1.75
2018-04-06T04:10:23.354Z,1.60
2018-04-06T04:12:50.670Z,1.69
2018-04-06T04:15:18.001Z,1.72
2018-04-06T04:17:45.406Z,1.80
2018-04-06T04:20:13.446Z,1.90
2018-04-06T04:22:40.779Z,1.85
2018-04-06T04:25:08.082Z,2.00
2018-04-06T04:27:35.370Z,1.97
2018-04-06T04:30:03.484Z,1.99
2018-04-06T04:32:30.782Z,1.92
2018-04-06T04:34:58.197Z,1.98
2018-04-06T04:37:25.522Z,1.95
2018-04-06T04:39:53.833Z,1.99
2018-04-06T04:42:21.134Z,1.96
2018-04-06T04:44:47.675Z,2.16
2018-04-06T04:47:14.994Z,2.23
2018-04-06T04:49:41.950Z,2.27
2018-04-06T04:52:08.722Z,2.20
2018-04-06T04:54:36.033Z,2.32
2018-04-06T04:57:03.338Z,2.33
2018-04-06T04:59:30.252Z,2.35
2018-04-06T05:01:58.883Z,2.37
2018-04-06T05:04:26.197Z,2.32
2018-04-06T05:06:54.247Z,2.42
2018-04-06T05:09:21.550Z,2.53
2018-04-06T05:11:48.858Z,2.48
2018-04-06T05:14:15.509Z,2.51
2018-04-06T05:16:42.867Z,2.58
2018-04-06T05:19:10.173Z,2.55
2018-04-06T05:21:36.813Z,2.77
2018-04-06T05:24:03.459Z,2.76
2018-04-06T05:26:29.967Z,2.90
2018-04-06T05:28:57.289Z,2.99
2018-04-06T05:31:24.642Z,3.10
2018-04-06T05:33:51.937Z,3.05
2018-04-06T05:36:19.237Z,3.10
2018-04-06T05:38:47.380Z,3.28
2018-04-06T05:41:14.640Z,3.47
2018-04-06T05:43:43.074Z,3.48
2018-04-06T05:46:10.417Z,3.73
2018-04-06T05:48:37.738Z,3.76
2018-04-06T05:51:06.235Z,3.89
2018-04-06T05:53:33.531Z,3.96
2018-04-06T05:56:01.839Z,4.12
2018-04-06T05:58:30.054Z,4.24
2018-04-06T06:00:57.385Z,4.31
2018-04-06T06:03:24.741Z,4.47
2018-04-06T06:05:52.767Z,4.51
2018-04-06T06:08:20.449Z,4.66
2018-04-06T06:10:49.330Z,4.77
2018-04-06T06:13:16.636Z,4.83
2018-04-06T06:15:43.998Z,4.82
2018-04-06T06:18:11.343Z,5.00
2018-04-06T06:20:38.686Z,5.37
2018-04-06T06:23:06.394Z,5.49
2018-04-06T06:25:33.715Z,5.41
2018-04-06T06:28:01.674Z,5.33
2018-04-06T06:30:29.674Z,5.67
2018-04-06T06:32:57.011Z,5.82
2018-04-06T06:35:24.318Z,5.83
2018-04-06T06:37:51.653Z,5.82
2018-04-06T06:40:18.965Z,5.82
2018-04-06T06:42:46.278Z,6.13
2018-04-06T06:45:13.636Z,6.03
2018-04-06T06:47:40.973Z,6.25
2018-04-06T06:50:08.351Z,6.71
2018-04-06T06:52:35.713Z,6.72
2018-04-06T06:55:03.076Z,6.63
2018-04-06T06:57:30.458Z,6.57
2018-04-06T06:59:57.786Z,6.85
2018-04-06T07:02:25.102Z,6.68
2018-04-06T07:04:52.440Z,6.92
2018-04-06T07:07:19.776Z,7.23
2018-04-06T07:09:47.085Z,7.60
2018-04-06T07:12:14.419Z,7.63
2018-04-06T07:14:42.501Z,7.62
2018-04-06T07:17:10.415Z,7.92
2018-04-06T07:19:37.852Z,8.17
2018-04-06T07:22:05.159Z,8.38
2018-04-06T07:24:32.487Z,8.87
2018-04-06T07:26:59.799Z,8.76
2018-04-06T07:29:27.126Z,9.33
2018-04-06T07:31:54.468Z,8.88
2018-04-06T07:34:21.779Z,9.36
2018-04-06T07:36:49.134Z,9.74
2018-04-06T07:39:16.490Z,10.44
2018-04-06T07:41:43.809Z,10.81
2018-04-06T07:44:11.893Z,10.96
2018-04-06T07:46:39.958Z,11.24
2018-04-06T07:49:08.614Z,10.70
2018-04-06T07:51:35.963Z,10.93
2018-04-06T07:54:03.308Z,11.31
2018-04-06T07:56:30.896Z,11.29
2018-04-06T07:58:58.199Z,11.17
2018-04-06T08:01:25.524Z,11.24
2018-04-06T08:03:53.599Z,11.12
2018-04-06T08:06:21.733Z,12.05
2018-04-06T08:08:49.022Z,12.53
2018-04-06T08:11:17.099Z,13.12
2018-04-06T08:13:44.455Z,13.03
2018-04-06T08:16:11.763Z,13.83
2018-04-06T08:18:39.124Z,12.88
2018-04-06T08:21:06.438Z,12.99
2018-04-06T08:23:33.779Z,12.39
2018-04-06T08:26:01.110Z,13.35
2018-04-06T08:28:28.447Z,12.92
2018-04-06T08:30:56.546Z,12.75
2018-04-06T08:33:24.650Z,13.51
2018-04-06T08:35:52.613Z,14.16
2018-04-06T08:38:19.918Z,13.41
2018-04-06T08:40:47.256Z,13.05
2018-04-06T08:43:14.647Z,13.34
2018-04-06T08:45:42.698Z,14.55
2018-04-06T08:48:10.186Z,14.66
2018-04-06T08:50:38.524Z,15.15
2018-04-06T08:53:06.866Z,15.14
2018-04-06T08:55:34.209Z,14.80
2018-04-06T08:58:01.808Z,15.20
2018-04-06T09:00:29.181Z,16.04
2018-04-06T09:02:56.507Z,15.54
2018-04-06T09:05:23.835Z,15.51
2018-04-06T09:07:51.155Z,15.80
2018-04-06T09:10:19.258Z,16.69
2018-04-06T09:12:47.583Z,17.16
2018-04-06T09:15:15.594Z,17.12
2018-04-06T09:17:42.920Z,16.94
2018-04-06T09:20:10.411Z,16.34
2018-04-06T09:22:38.782Z,16.86
2018-04-06T09:25:06.155Z,16.74
2018-04-06T09:27:33.944Z,16.27
2018-04-06T09:30:01.272Z,16.89
2018-04-06T09:32:28.574Z,17.20
2018-04-06T09:34:55.909Z,18.07
2018-04-06T09:37:23.314Z,18.24
2018-04-06T09:39:50.641Z,18.12
2018-04-06T09:42:18.024Z,18.32
2018-04-06T09:44:45.358Z,18.45
2018-04-06T09:47:12.716Z,18.71
2018-04-06T09:49:40.030Z,17.98
2018-04-06T09:52:07.361Z,18.36
2018-04-06T09:54:36.002Z,18.36
2018-04-06T09:57:03.343Z,18.66
2018-04-06T09:59:31.401Z,18.22
2018-04-06T10:01:58.782Z,17.69
2018-04-06T10:04:27.154Z,17.59
2018-04-06T10:06:54.559Z,18.36
2018-04-06T10:09:21.919Z,17.93
2018-04-06T10:11:49.269Z,17.96
2018-04-06T10:14:16.693Z,17.89
2018-04-06T10:16:45.007Z,17.81
2018-04-06T10:19:12.374Z,17.55
2018-04-06T10:21:40.306Z,18.28
2018-04-06T10:24:07.610Z,17.79
2018-04-06T10:26:35.005Z,17.81
2018-04-06T10:29:02.356Z,17.40
2018-04-06T10:31:30.570Z,18.78
2018-04-06T10:33:57.918Z,18.15
2018-04-06T10:36:25.305Z,18.67
2018-04-06T10:38:52.626Z,18.18
2018-04-06T10:41:20.071Z,18.14
2018-04-06T10:43:47.388Z,18.40
2018-04-06T10:46:14.741Z,18.61
2018-04-06T10:48:42.060Z,18.57
2018-04-06T10:51:09.391Z,18.70
2018-04-06T10:53:36.731Z,17.69
2018-04-06T10:56:04.075Z,17.28
2018-04-06T10:58:31.722Z,17.64
2018-04-06T11:00:59.062Z,17.60
2018-04-06T11:03:26.393Z,17.35
2018-04-06T11:05:54.539Z,17.41
2018-04-06T11:08:21.873Z,16.89
2018-04-06T11:10:49.222Z,16.71
2018-04-06T11:13:16.574Z,17.17
2018-04-06T11:15:43.961Z,16.96
2018-04-06T11:18:11.294Z,16.77
2018-04-06T11:20:38.715Z,17.05
2018-04-06T11:23:06.819Z,17.25
2018-04-06T11:25:34.915Z,17.42
2018-04-06T11:28:03.239Z,17.21
2018-04-06T11:30:30.653Z,16.71
2018-04-06T11:32:58.033Z,16.34
2018-04-06T11:35:25.379Z,16.23
2018-04-06T11:37:52.731Z,15.65
2018-04-06T11:40:20.979Z,15.44
2018-04-06T11:42:48.420Z,14.93
2018-04-06T11:45:15.768Z,15.20
2018-04-06T11:47:43.080Z,15.24
2018-04-06T11:50:10.435Z,15.23
2018-04-06T11:52:37.787Z,15.11
2018-04-06T11:55:05.233Z,14.87
2018-04-06T11:57:32.555Z,15.10
2018-04-06T12:00:00.197Z,15.20
2018-04-06T12:02:27.561Z,15.30
2018-04-06T12:04:54.932Z,15.10
2018-04-06T12:07:22.299Z,15.26
2018-04-06T12:09:49.631Z,15.11
2018-04-06T12:12:17.033Z,15.20
2018-04-06T12:14:44.370Z,14.81
2018-04-06T12:17:11.742Z,15.07
2018-04-06T12:19:39.223Z,15.02
2018-04-06T12:22:06.590Z,14.80
2018-04-06T12:24:33.962Z,14.78
2018-04-06T12:27:01.318Z,14.74
2018-04-06T12:29:28.734Z,15.09
2018-04-06T12:31:56.170Z,15.44
2018-04-06T12:34:23.527Z,15.19
2018-04-06T12:36:50.939Z,15.24
2018-04-06T12:39:18.277Z,15.15
2018-04-06T12:41:46.586Z,15.13
2018-04-06T12:44:14.859Z,15.18
2018-04-06T12:46:42.199Z,15.50
2018-04-06T12:49:09.710Z,15.21
2018-04-06T12:51:37.024Z,15.29
2018-04-06T12:54:04.394Z,15.37
2018-04-06T12:56:31.754Z,15.19
2018-04-06T12:58:59.061Z,15.04
2018-04-06T13:01:26.432Z,15.25
2018-04-06T13:03:54.616Z,15.31
2018-04-06T13:06:21.955Z,15.31
2018-04-06T13:08:49.313Z,15.22
2018-04-06T13:11:16.690Z,15.22
2018-04-06T13:13:44.068Z,15.24
2018-04-06T13:16:12.177Z,15.33
2018-04-06T13:18:39.518Z,15.29
2018-04-06T13:21:06.891Z,15.38
2018-04-06T13:23:34.252Z,14.88
2018-04-06T13:26:01.606Z,14.98
2018-04-06T13:28:28.967Z,15.14
2018-04-06T13:30:56.391Z,15.32
2018-04-06T13:33:23.737Z,15.33
2018-04-06T13:35:51.381Z,15.39
2018-04-06T13:38:18.713Z,15.36
2018-04-06T13:40:46.032Z,15.29
2018-04-06T13:43:13.403Z,15.16
2018-04-06T13:45:40.800Z,15.13
2018-04-06T13:48:08.155Z,15.12
2018-04-06T13:50:35.473Z,15.11
2018-04-06T13:53:02.867Z,15.04
2018-04-06T13:55:30.210Z,15.07
2018-04-06T13:57:57.547Z,15.23
2018-04-06T14:00:24.888Z,15.11
2018-04-06T14:02:53.406Z,15.13
2018-04-06T14:05:20.759Z,15.26
2018-04-06T14:07:48.174Z,15.31
2018-04-06T14:10:15.605Z,15.35
2018-04-06T14:12:42.938Z,15.20
2018-04-06T14:15:10.329Z,15.24
2018-04-06T14:17:38.406Z,15.26
2018-04-06T14:20:05.807Z,15.33
2018-04-06T14:22:33.265Z,15.34
2018-04-06T14:25:00.720Z,15.23
2018-04-06T14:27:28.647Z,15.11
2018-04-06T14:29:56.381Z,15.30
2018-04-06T14:32:24.647Z,15.34
2018-04-06T14:34:55.605Z,15.37
2018-04-06T14:37:22.950Z,15.28
2018-04-06T14:39:50.313Z,15.33
2018-04-06T14:42:21.161Z,15.47
2018-04-06T14:44:48.527Z,15.60
2018-04-06T14:47:16.358Z,15.40
2018-04-06T14:49:44.434Z,15.34
2018-04-06T14:52:13.898Z,15.29
2018-04-06T14:54:41.217Z,15.37
2018-04-06T14:57:08.574Z,15.41
2018-04-06T14:59:35.974Z,15.63
2018-04-06T15:02:05.923Z,15.51
2018-04-06T15:04:33.276Z,15.38
2018-04-06T15:07:00.711Z,15.45
2018-04-06T15:09:28.061Z,15.39
2018-04-06T15:11:58.753Z,15.42
2018-04-06T15:14:27.308Z,15.43
2018-04-06T15:16:54.671Z,15.36
2018-04-06T15:19:22.022Z,15.36
2018-04-06T15:21:52.037Z,15.35
2018-04-06T15:24:20.444Z,15.35
2018-04-06T15:26:47.760Z,15.39
2018-04-06T15:29:15.417Z,15.26
2018-04-06T15:31:42.877Z,15.20
2018-04-06T15:34:10.334Z,15.34
2018-04-06T15:36:38.265Z,15.38
2018-04-06T15:39:05.621Z,15.38
2018-04-06T15:41:35.259Z,15.41
2018-04-06T15:44:02.761Z,15.48
2018-04-06T15:46:30.072Z,15.42
2018-04-06T15:49:00.799Z,15.41
2018-04-06T15:51:28.154Z,15.39
2018-04-06T15:53:58.949Z,15.56
2018-04-06T15:56:26.262Z,15.57
2018-04-06T15:58:53.751Z,15.47
2018-04-06T16:01:21.114Z,15.41
2018-04-06T16:03:50.758Z,15.27
2018-04-06T16:06:18.107Z,15.26
2018-04-06T16:08:48.808Z,15.25
2018-04-06T16:11:16.343Z,15.33
2018-04-06T16:13:43.726Z,15.30
2018-04-06T16:16:13.607Z,15.24
2018-04-06T16:18:42.148Z,15.24
2018-04-06T16:21:09.467Z,15.12
2018-04-06T16:23:39.641Z,15.04
2018-04-06T16:26:07.057Z,15.07
2018-04-06T16:28:34.451Z,15.17
2018-04-06T16:31:01.829Z,15.07
2018-04-06T16:33:32.700Z,15.02
2018-04-06T16:36:00.960Z,14.94
2018-04-06T16:38:29.092Z,15.04
2018-04-06T16:40:56.403Z,15.08
2018-04-06T16:43:23.738Z,15.03
2018-04-06T16:45:51.072Z,14.84
2018-04-06T16:48:18.684Z,14.88
2018-04-06T16:50:49.443Z,14.79
2018-04-06T16:53:16.797Z,14.69
2018-04-06T16:55:44.182Z,14.72
2018-04-06T16:58:11.550Z,14.79
2018-04-06T17:00:38.943Z,14.60
2018-04-06T17:03:06.343Z,14.61
2018-04-06T17:05:33.644Z,14.50
2018-04-06T17:08:04.543Z,14.31
2018-04-06T17:10:31.868Z,14.25
2018-04-06T17:12:59.194Z,14.15
2018-04-06T17:15:27.298Z,14.20
2018-04-06T17:17:55.030Z,14.15
2018-04-06T17:20:22.458Z,14.02
2018-04-06T17:22:54.116Z,13.96
2018-04-06T17:25:21.457Z,13.95
2018-04-06T17:27:48.803Z,13.92
2018-04-06T17:30:16.152Z,13.75
2018-04-06T17:32:43.524Z,13.70
2018-04-06T17:35:14.299Z,13.58
2018-04-06T17:37:42.655Z,13.53
2018-04-06T17:40:10.119Z,13.60
2018-04-06T17:42:37.946Z,13.49
2018-04-06T17:45:05.417Z,13.34
2018-04-06T17:47:33.564Z,13.30
2018-04-06T17:50:01.435Z,13.30
2018-04-06T17:52:29.819Z,13.13
2018-04-06T17:54:57.973Z,13.07
2018-04-06T17:57:25.868Z,12.95
2018-04-06T17:59:53.312Z,12.88
2018-04-06T18:02:20.689Z,12.74
2018-04-06T18:04:48.028Z,12.71
2018-04-06T18:07:20.415Z,12.62
2018-04-06T18:09:47.775Z,12.54
2018-04-06T18:12:17.407Z,12.44
2018-04-06T18:14:44.771Z,12.41
2018-04-06T18:17:14.632Z,12.40
2018-04-06T18:19:41.991Z,12.39
2018-04-06T18:22:09.387Z,12.29
2018-04-06T18:24:36.729Z,12.23
2018-04-06T18:27:04.102Z,12.22
2018-04-06T18:29:32.187Z,12.16
2018-04-06T18:31:59.811Z,12.05
2018-04-06T18:34:27.743Z,11.92
2018-04-06T18:36:55.088Z,11.78
2018-04-06T18:39:22.438Z,11.81
2018-04-06T18:41:53.234Z,11.79
2018-04-06T18:44:20.639Z,11.71
2018-04-06T18:46:51.391Z,11.58
2018-04-06T18:49:18.796Z,11.51
2018-04-06T18:51:46.301Z,11.50
2018-04-06T18:54:18.210Z,11.49
2018-04-06T18:56:45.622Z,11.33
2018-04-06T18:59:13.792Z,11.30
2018-04-06T19:01:41.159Z,11.26
2018-04-06T19:04:11.924Z,11.17
2018-04-06T19:06:40.014Z,11.18
2018-04-06T19:09:10.777Z,11.16
2018-04-06T19:11:38.097Z,11.08
2018-04-06T19:14:09.620Z,11.07
2018-04-06T19:16:36.974Z,11.10
2018-04-06T19:19:07.542Z,11.05
2018-04-06T19:21:34.923Z,11.03
2018-04-06T19:24:02.311Z,10.92
2018-04-06T19:26:33.059Z,10.86
2018-04-06T19:29:00.488Z,10.88
2018-04-06T19:31:32.224Z,10.86
2018-04-06T19:33:59.578Z,10.82
2018-04-06T19:36:30.578Z,10.83
2018-04-06T19:38:58.654Z,10.85
2018-04-06T19:41:28.522Z,10.77
2018-04-06T19:43:56.562Z,10.72
2018-04-06T19:46:27.316Z,10.71
2018-04-06T19:48:54.647Z,10.71
2018-04-06T19:51:25.300Z,10.63
2018-04-06T19:53:52.681Z,10.68
2018-04-06T19:56:23.426Z,10.66
2018-04-06T19:58:50.891Z,10.65
2018-04-06T20:01:22.696Z,10.61
2018-04-06T20:03:50.055Z,10.56
2018-04-06T20:06:20.719Z,10.50
2018-04-06T20:08:48.019Z,10.51
2018-04-06T20:11:18.015Z,10.48
2018-04-06T20:13:45.364Z,10.48
2018-04-06T20:16:17.524Z,10.46
2018-04-06T20:18:45.136Z,10.46
2018-04-06T20:21:17.099Z,10.47
2018-04-06T20:23:45.467Z,10.44
2018-04-06T20:26:15.325Z,10.37
2018-04-06T20:28:43.799Z,10.37
2018-04-06T20:31:11.122Z,10.37
2018-04-06T20:33:43.149Z,10.33
2018-04-06T20:36:10.467Z,10.29
2018-04-06T20:38:42.799Z,10.30
2018-04-06T20:41:11.618Z,10.27
2018-04-06T20:43:43.611Z,10.25
2018-04-06T20:46:11.612Z,10.17
2018-04-06T20:48:42.394Z,10.24
2018-04-06T20:51:09.705Z,10.24
2018-04-06T20:53:41.579Z,10.26
2018-04-06T20:56:09.922Z,10.26
2018-04-06T20:58:39.896Z,10.20
2018-04-06T21:01:07.301Z,10.19
2018-04-06T21:03:37.387Z,10.11
2018-04-06T21:06:04.741Z,10.15
2018-04-06T21:08:34.758Z,10.17
2018-04-06T21:11:03.093Z,10.06
2018-04-06T21:13:35.818Z,9.97
2018-04-06T21:16:03.162Z,10.00
2018-04-06T21:18:35.209Z,9.98
2018-04-06T21:21:02.571Z,9.95
2018-04-06T21:23:36.789Z,9.94
2018-04-06T21:26:04.144Z,9.91
2018-04-06T21:28:36.988Z,9.83
2018-04-06T21:31:05.432Z,9.85
2018-04-06T21:33:32.834Z,9.78
2018-04-06T21:36:03.621Z,9.79
2018-04-06T21:38:30.955Z,9.79
2018-04-06T21:41:01.665Z,9.68
2018-04-06T21:43:29.017Z,9.74
2018-04-06T21:45:59.674Z,9.78
2018-04-06T21:48:27.047Z,9.76
2018-04-06T21:50:55.159Z,9.73
2018-04-06T21:53:22.479Z,9.68
2018-04-06T21:55:49.886Z,9.76
2018-04-06T21:58:17.123Z,9.71
2018-04-06T22:00:44.287Z,9.70
2018-04-06T22:03:15.355Z,9.60
2018-04-06T22:05:42.771Z,9.56
2018-04-06T22:08:18.345Z,9.55
2018-04-06T22:10:45.688Z,9.55
2018-04-06T22:13:17.910Z,9.52
2018-04-06T22:15:45.225Z,9.48
2018-04-06T22:18:17.213Z,9.43
2018-04-06T22:20:45.614Z,9.39
2018-04-06T22:23:12.999Z,9.33
2018-04-06T22:25:42.938Z,9.23
2018-04-06T22:28:14.406Z,9.17
2018-04-06T22:30:42.461Z,9.24
2018-04-06T22:33:14.469Z,9.21
2018-04-06T22:35:42.844Z,9.22
2018-04-06T22:38:13.574Z,9.24
2018-04-06T22:40:41.904Z,9.16
2018-04-06T22:43:13.646Z,9.11
2018-04-06T22:45:42.083Z,9.12
2018-04-06T22:48:10.106Z,9.08
2018-04-06T22:50:40.007Z,9.07
2018-04-06T22:53:09.215Z,9.00
2018-04-06T22:55:37.649Z,9.03
2018-04-06T22:58:05.107Z,9.02
2018-04-06T23:00:37.307Z,8.92
2018-04-06T23:03:04.680Z,8.97
2018-04-06T23:05:34.544Z,8.90
2018-04-06T23:08:03.001Z,8.90
2018-04-06T23:10:31.064Z,8.88
2018-04-06T23:13:03.298Z,8.85
2018-04-06T23:15:31.738Z,8.82
2018-04-06T23:18:01.680Z,8.83
2018-04-06T23:20:29.549Z,8.86
2018-04-06T23:23:00.848Z,8.82
2018-04-06T23:25:28.134Z,8.85
2018-04-06T23:28:00.127Z,8.83
2018-04-06T23:30:27.446Z,8.76
2018-04-06T23:33:00.525Z,8.68
2018-04-06T23:35:28.650Z,8.61
2018-04-06T23:37:58.986Z,8.62
2018-04-06T23:40:26.294Z,8.57
2018-04-06T23:42:57.563Z,8.50
2018-04-06T23:45:26.789Z,8.47
2018-04-06T23:47:54.083Z,8.51
2018-04-06T23:50:26.128Z,8.43
2018-04-06T23:52:54.194Z,8.46
2018-04-06T23:55:24.896Z,8.27
2018-04-06T23:57:52.222Z,8.22
